createdAt,value
2018-03-24T00:02:25.296Z,5.70
2018-03-24T00:04:53.551Z,5.80
2018-03-24T00:07:21.059Z,5.70
2018-03-24T00:09:48.552Z,5.80
2018-03-24T00:12:16.059Z,5.90
2018-03-24T00:14:43.553Z,5.90
2018-03-24T00:17:11.835Z,5.90
2018-03-24T00:19:39.324Z,5.90
2018-03-24T00:22:07.592Z,5.90
2018-03-24T00:24:35.080Z,5.80
2018-03-24T00:27:03.368Z,5.90
2018-03-24T00:29:31.619Z,6.00
2018-03-24T00:31:59.099Z,5.90
2018-03-24T00:34:26.601Z,6.00
2018-03-24T00:36:54.842Z,6.10
2018-03-24T00:39:22.357Z,6.00
2018-03-24T00:41:50.612Z,6.10
2018-03-24T00:44:18.123Z,6.10
2018-03-24T00:46:45.610Z,6.20
2018-03-24T00:49:13.129Z,6.20
2018-03-24T00:51:40.610Z,6.10
2018-03-24T00:54:08.121Z,6.10
2018-03-24T00:56:35.613Z,6.00
2018-03-24T00:59:03.125Z,6.10
2018-03-24T01:01:31.374Z,6.20
2018-03-24T01:03:58.879Z,6.20
2018-03-24T01:06:27.134Z,6.30
2018-03-24T01:08:54.639Z,6.20
2018-03-24T01:11:22.122Z,6.30
2018-03-24T01:13:49.635Z,6.20
2018-03-24T01:16:17.115Z,6.30
2018-03-24T01:18:44.629Z,6.30
2018-03-24T01:21:12.879Z,6.40
2018-03-24T01:23:40.372Z,6.40
2018-03-24T01:26:07.871Z,6.40
2018-03-24T01:28:35.354Z,6.30
2018-03-24T01:31:02.864Z,6.20
2018-03-24T01:33:30.351Z,6.20
2018-03-24T01:35:57.855Z,6.20
2018-03-24T01:38:25.334Z,6.20
2018-03-24T01:40:52.834Z,6.20
2018-03-24T01:43:20.317Z,6.10
2018-03-24T01:45:47.824Z,6.10
2018-03-24T01:48:15.315Z,6.10
2018-03-24T01:50:42.816Z,6.10
2018-03-24T01:53:10.293Z,6.00
2018-03-24T01:55:37.768Z,6.00
2018-03-24T01:58:05.285Z,6.00
2018-03-24T02:00:33.628Z,5.90
2018-03-24T02:03:01.141Z,5.90
2018-03-24T02:05:28.636Z,5.80
2018-03-24T02:07:56.144Z,5.90
2018-03-24T02:10:23.643Z,5.90
2018-03-24T02:12:51.907Z,5.80
2018-03-24T02:15:19.392Z,5.80
2018-03-24T02:17:47.659Z,5.70
2018-03-24T02:20:18.987Z,5.70
2018-03-24T02:22:46.490Z,5.60
2018-03-24T02:25:13.976Z,5.60
2018-03-24T02:27:41.479Z,5.50
2018-03-24T02:30:08.964Z,5.40
2018-03-24T02:32:36.506Z,5.40
2018-03-24T02:35:03.969Z,5.40
2018-03-24T02:37:32.234Z,5.20
2018-03-24T02:39:59.716Z,5.20
2018-03-24T02:42:27.215Z,5.10
2018-03-24T02:44:54.701Z,5.00
2018-03-24T02:47:22.202Z,5.00
2018-03-24T02:49:49.700Z,4.80
2018-03-24T02:52:17.981Z,4.80
2018-03-24T02:54:45.464Z,4.80
2018-03-24T02:57:13.724Z,4.70
2018-03-24T02:59:41.243Z,4.70
2018-03-24T03:02:08.736Z,4.70
2018-03-24T03:04:36.264Z,4.60
2018-03-24T03:07:04.520Z,4.50
2018-03-24T03:09:32.033Z,4.50
2018-03-24T03:11:59.523Z,4.60
2018-03-24T03:14:27.044Z,4.50
2018-03-24T03:16:54.534Z,4.50
2018-03-24T03:19:22.813Z,4.50
2018-03-24T03:21:51.065Z,4.40
2018-03-24T03:24:18.572Z,4.40
2018-03-24T03:26:46.053Z,4.30
2018-03-24T03:29:14.319Z,4.40
2018-03-24T03:31:44.605Z,4.30
2018-03-24T03:34:12.124Z,4.30
2018-03-24T03:36:39.620Z,4.20
2018-03-24T03:39:07.138Z,4.20
2018-03-24T03:41:34.616Z,4.20
2018-03-24T03:44:02.100Z,4.20
2018-03-24T03:46:29.611Z,4.20
2018-03-24T03:48:57.102Z,4.20
2018-03-24T03:51:24.604Z,4.20
2018-03-24T03:53:52.101Z,4.20
2018-03-24T03:56:20.376Z,4.20
2018-03-24T03:58:47.855Z,4.10
2018-03-24T04:01:16.136Z,4.30
2018-03-24T04:03:43.622Z,4.30
2018-03-24T04:06:11.887Z,4.50
2018-03-24T04:08:39.367Z,4.50
2018-03-24T04:11:07.654Z,4.50
2018-03-24T04:13:35.146Z,4.50
2018-03-24T04:16:03.417Z,4.30
2018-03-24T04:18:30.901Z,4.30
2018-03-24T04:20:59.171Z,4.10
2018-03-24T04:23:26.655Z,4.10
2018-03-24T04:25:54.933Z,4.20
2018-03-24T04:28:22.419Z,4.10
2018-03-24T04:30:50.708Z,3.90
2018-03-24T04:33:18.969Z,3.90
2018-03-24T04:35:46.460Z,3.80
2018-03-24T04:38:13.967Z,3.90
2018-03-24T04:40:41.450Z,3.80
2018-03-24T04:43:08.949Z,3.70
2018-03-24T04:45:36.438Z,3.70
2018-03-24T04:48:04.708Z,3.90
2018-03-24T04:50:32.201Z,3.80
2018-03-24T04:53:00.471Z,4.20
2018-03-24T04:55:27.954Z,4.20
2018-03-24T04:57:56.232Z,4.30
2018-03-24T05:00:24.488Z,4.20
2018-03-24T05:02:52.022Z,4.20
2018-03-24T05:05:19.517Z,4.20
2018-03-24T05:07:47.003Z,4.40
2018-03-24T05:10:14.501Z,4.40
2018-03-24T05:12:41.980Z,4.10
2018-03-24T05:15:10.253Z,3.90
2018-03-24T05:17:37.734Z,3.80
2018-03-24T05:20:05.244Z,3.80
2018-03-24T05:22:32.728Z,3.80
2018-03-24T05:25:00.239Z,3.80
2018-03-24T05:27:27.730Z,3.70
2018-03-24T05:29:56.996Z,3.70
2018-03-24T05:32:24.482Z,3.60
2018-03-24T05:34:52.004Z,3.60
2018-03-24T05:37:19.491Z,3.80
2018-03-24T05:39:46.999Z,3.60
2018-03-24T05:42:14.483Z,3.40
2018-03-24T05:44:42.752Z,3.60
2018-03-24T05:47:10.244Z,3.50
2018-03-24T05:49:38.517Z,3.80
2018-03-24T05:52:06.009Z,3.70
2018-03-24T05:54:34.281Z,4.00
2018-03-24T05:57:01.768Z,3.90
2018-03-24T05:59:30.046Z,4.00
2018-03-24T06:02:18.412Z,4.00
2018-03-24T06:04:46.684Z,4.00
2018-03-24T06:07:14.178Z,4.00
2018-03-24T06:09:42.432Z,4.10
2018-03-24T06:12:13.273Z,4.10
2018-03-24T06:14:40.878Z,4.00
2018-03-24T06:17:08.420Z,3.80
2018-03-24T06:19:37.929Z,3.80
2018-03-24T06:22:05.449Z,3.90
2018-03-24T06:24:33.699Z,3.90
2018-03-24T06:27:01.208Z,3.80
2018-03-24T06:29:33.152Z,4.00
2018-03-24T06:32:01.234Z,3.90
2018-03-24T06:34:28.715Z,4.10
2018-03-24T06:36:57.044Z,4.20
2018-03-24T06:39:24.541Z,4.30
2018-03-24T06:41:52.047Z,4.40
2018-03-24T06:44:19.536Z,4.50
2018-03-24T06:46:47.044Z,4.60
2018-03-24T06:49:14.533Z,4.70
2018-03-24T06:51:42.047Z,4.70
2018-03-24T06:54:10.295Z,5.10
2018-03-24T06:56:43.501Z,5.10
2018-03-24T06:59:10.996Z,5.20
2018-03-24T07:01:40.260Z,5.50
2018-03-24T07:04:07.755Z,5.40
2018-03-24T07:06:35.240Z,5.60
2018-03-24T07:09:02.744Z,5.70
2018-03-24T07:11:30.240Z,5.70
2018-03-24T07:13:57.751Z,5.80
2018-03-24T07:16:25.252Z,5.80
2018-03-24T07:18:52.763Z,5.70
2018-03-24T07:21:20.317Z,5.80
2018-03-24T07:23:48.552Z,5.70
2018-03-24T07:26:16.040Z,5.60
2018-03-24T07:28:43.547Z,5.80
2018-03-24T07:31:11.035Z,6.00
2018-03-24T07:33:38.527Z,6.10
2018-03-24T07:36:06.015Z,6.20
2018-03-24T07:38:34.288Z,6.40
2018-03-24T07:41:01.783Z,6.30
2018-03-24T07:43:29.288Z,6.50
2018-03-24T07:45:56.769Z,6.70
2018-03-24T07:48:24.279Z,6.90
2018-03-24T07:50:52.528Z,7.00
2018-03-24T07:53:20.044Z,7.00
2018-03-24T07:55:48.292Z,6.90
2018-03-24T07:58:15.780Z,6.80
2018-03-24T08:00:43.293Z,7.10
2018-03-24T08:03:10.785Z,7.30
2018-03-24T08:05:38.303Z,7.40
2018-03-24T08:08:06.547Z,6.90
2018-03-24T08:10:34.052Z,6.80
2018-03-24T08:13:01.541Z,7.10
2018-03-24T08:15:29.805Z,7.20
2018-03-24T08:17:57.303Z,7.10
2018-03-24T08:20:24.821Z,7.10
2018-03-24T08:22:52.316Z,7.30
2018-03-24T08:25:19.829Z,7.70
2018-03-24T08:27:47.320Z,7.40
2018-03-24T08:30:14.828Z,7.40
2018-03-24T08:32:42.324Z,7.80
2018-03-24T08:35:10.635Z,8.30
2018-03-24T08:37:38.119Z,8.30
2018-03-24T08:40:05.616Z,8.60
2018-03-24T08:45:30.664Z,9.00
2018-03-24T08:47:58.143Z,9.30
2018-03-24T08:50:25.675Z,9.50
2018-03-24T08:52:53.156Z,9.60
2018-03-24T08:55:20.643Z,9.60
2018-03-24T08:57:48.152Z,9.20
2018-03-24T09:00:16.399Z,9.70
2018-03-24T09:02:43.933Z,9.60
2018-03-24T09:05:11.452Z,9.90
2018-03-24T09:07:38.963Z,10.20
2018-03-24T09:10:06.475Z,10.40
2018-03-24T09:12:33.975Z,10.60
2018-03-24T09:15:01.507Z,10.70
2018-03-24T09:17:28.988Z,10.80
2018-03-24T09:19:56.481Z,10.90
2018-03-24T09:22:24.014Z,11.00
2018-03-24T09:24:51.522Z,11.20
2018-03-24T09:27:19.003Z,11.30
2018-03-24T09:29:47.274Z,11.50
2018-03-24T09:32:14.779Z,11.50
2018-03-24T09:34:42.296Z,11.40
2018-03-24T09:37:09.781Z,11.00
2018-03-24T09:39:37.283Z,11.00
2018-03-24T09:42:05.540Z,11.10
2018-03-24T09:44:33.049Z,11.00
2018-03-24T09:47:00.540Z,11.00
2018-03-24T09:49:28.060Z,10.90
2018-03-24T09:51:55.552Z,10.70
2018-03-24T09:54:23.833Z,10.60
2018-03-24T09:56:52.084Z,10.80
2018-03-24T09:59:19.593Z,10.80
2018-03-24T10:01:47.852Z,11.10
2018-03-24T10:04:15.352Z,11.10
2018-03-24T10:06:43.600Z,11.20
2018-03-24T10:09:11.120Z,11.10
2018-03-24T10:11:38.616Z,11.20
2018-03-24T10:14:06.127Z,11.60
2018-03-24T10:16:33.640Z,11.00
2018-03-24T10:19:01.145Z,10.70
2018-03-24T10:21:36.280Z,11.00
2018-03-24T10:27:10.271Z,11.10
2018-03-24T10:29:37.782Z,10.60
2018-03-24T10:32:06.049Z,10.30
2018-03-24T10:34:34.337Z,10.50
2018-03-24T10:37:01.825Z,10.50
2018-03-24T10:39:30.075Z,10.60
2018-03-24T10:41:57.575Z,10.60
2018-03-24T10:44:25.876Z,10.70
2018-03-24T10:46:54.128Z,10.60
2018-03-24T10:49:21.627Z,10.60
2018-03-24T10:51:49.154Z,10.80
2018-03-24T10:54:16.648Z,10.80
2018-03-24T10:56:44.160Z,11.00
2018-03-24T10:59:11.656Z,11.30
2018-03-24T11:01:39.160Z,11.40
2018-03-24T11:04:06.658Z,11.50
2018-03-24T11:06:34.175Z,11.40
2018-03-24T11:09:01.660Z,11.50
2018-03-24T11:11:29.175Z,11.70
2018-03-24T11:13:56.666Z,12.10
2018-03-24T11:16:24.179Z,12.60
2018-03-24T11:18:51.670Z,12.50
2018-03-24T11:21:19.940Z,11.50
2018-03-24T11:23:47.437Z,11.40
2018-03-24T11:26:14.952Z,11.60
2018-03-24T11:28:42.436Z,11.90
2018-03-24T11:31:09.953Z,12.10
2018-03-24T11:33:37.441Z,12.00
2018-03-24T11:36:04.927Z,12.40
2018-03-24T11:38:32.422Z,12.70
2018-03-24T11:40:59.910Z,12.90
2018-03-24T11:43:28.199Z,13.30
2018-03-24T11:45:56.456Z,13.40
2018-03-24T11:48:23.963Z,13.30
2018-03-24T11:50:52.208Z,13.00
2018-03-24T11:53:19.707Z,12.90
2018-03-24T11:55:47.191Z,12.70
2018-03-24T11:58:15.455Z,12.50
2018-03-24T12:00:42.940Z,12.40
2018-03-24T12:03:10.445Z,12.20
2018-03-24T12:05:37.937Z,12.00
2018-03-24T12:08:05.439Z,12.10
2018-03-24T12:10:32.927Z,12.00
2018-03-24T12:13:01.196Z,11.90
2018-03-24T12:15:28.688Z,11.90
2018-03-24T12:21:08.688Z,12.10
2018-03-24T12:23:36.963Z,12.60
2018-03-24T12:26:04.447Z,12.60
2018-03-24T12:28:32.720Z,12.90
2018-03-24T12:31:00.199Z,12.80
2018-03-24T12:33:28.483Z,12.90
2018-03-24T12:35:55.971Z,12.90
2018-03-24T12:38:23.479Z,12.90
2018-03-24T12:40:50.961Z,13.00
2018-03-24T12:43:18.489Z,12.20
2018-03-24T12:45:45.992Z,12.30
2018-03-24T12:48:13.500Z,12.20
2018-03-24T12:50:41.016Z,12.30
2018-03-24T12:53:08.545Z,12.50
2018-03-24T12:55:36.824Z,12.80
2018-03-24T12:58:05.097Z,12.90
2018-03-24T13:00:32.607Z,12.80
2018-03-24T13:03:00.878Z,12.40
2018-03-24T13:05:28.378Z,12.30
2018-03-24T13:07:55.872Z,12.20
2018-03-24T13:10:23.381Z,12.30
2018-03-24T13:12:50.871Z,12.50
2018-03-24T13:15:19.137Z,12.20
2018-03-24T13:17:46.664Z,12.10
2018-03-24T13:20:14.208Z,12.20
2018-03-24T13:22:42.463Z,12.10
2018-03-24T13:25:09.980Z,12.00
2018-03-24T13:27:37.493Z,12.10
2018-03-24T13:30:04.983Z,11.90
2018-03-24T13:32:32.476Z,11.70
2018-03-24T13:35:00.756Z,12.00
2018-03-24T13:37:29.044Z,12.00
2018-03-24T13:39:57.331Z,11.80
2018-03-24T13:42:25.579Z,11.80
2018-03-24T13:44:53.071Z,11.70
2018-03-24T13:47:20.585Z,12.10
2018-03-24T13:49:48.067Z,12.20
2018-03-24T13:52:15.575Z,12.20
2018-03-24T13:54:43.076Z,12.20
2018-03-24T13:57:11.352Z,12.20
2018-03-24T13:59:38.852Z,12.10
2018-03-24T14:02:06.379Z,12.10
2018-03-24T14:04:33.876Z,12.10
2018-03-24T14:07:02.164Z,12.00
2018-03-24T14:09:30.428Z,12.10
2018-03-24T14:11:57.937Z,12.00
2018-03-24T14:14:25.432Z,12.10
2018-03-24T14:16:52.940Z,12.10
2018-03-24T14:19:20.423Z,11.90
2018-03-24T14:21:48.705Z,11.50
2018-03-24T14:24:16.205Z,11.50
2018-03-24T14:26:43.728Z,11.30
2018-03-24T14:29:11.225Z,11.30
2018-03-24T14:31:39.504Z,11.30
2018-03-24T14:34:07.013Z,11.20
2018-03-24T14:36:34.512Z,11.30
2018-03-24T14:39:02.042Z,11.20
2018-03-24T14:41:30.304Z,11.40
2018-03-24T14:43:57.819Z,11.30
2018-03-24T14:46:26.094Z,11.80
2018-03-24T14:48:53.604Z,11.70
2018-03-24T14:51:21.102Z,11.90
2018-03-24T14:53:48.625Z,12.00
2018-03-24T14:56:16.118Z,12.10
2018-03-24T14:58:43.628Z,12.20
2018-03-24T15:01:11.993Z,12.20
2018-03-24T15:03:39.504Z,12.10
2018-03-24T15:06:06.991Z,12.00
2018-03-24T15:08:34.492Z,12.00
2018-03-24T15:11:01.975Z,12.00
2018-03-24T15:13:29.492Z,12.10
2018-03-24T15:15:56.991Z,12.10
2018-03-24T15:18:24.513Z,12.10
2018-03-24T15:20:52.776Z,11.90
2018-03-24T15:23:20.280Z,11.90
2018-03-24T15:25:48.537Z,11.70
2018-03-24T15:28:16.060Z,11.70
2018-03-24T15:30:55.491Z,11.80
2018-03-24T15:33:35.425Z,11.90
2018-03-24T15:36:14.751Z,11.90
2018-03-24T15:38:42.265Z,11.90
2018-03-24T15:41:10.531Z,11.80
2018-03-24T15:43:38.047Z,11.80
2018-03-24T15:46:05.545Z,11.70
2018-03-24T15:48:33.035Z,11.70
2018-03-24T15:51:00.595Z,11.70
2018-03-24T15:53:28.072Z,11.70
2018-03-24T15:55:55.596Z,11.70
2018-03-24T15:58:23.099Z,11.60
2018-03-24T16:00:50.617Z,11.60
2018-03-24T16:03:18.877Z,11.60
2018-03-24T16:05:46.380Z,11.50
2018-03-24T16:08:14.636Z,11.70
2018-03-24T16:10:42.161Z,11.60
2018-03-24T16:13:09.644Z,11.80
2018-03-24T16:15:37.154Z,11.60
2018-03-24T16:18:04.647Z,11.50
2018-03-24T16:20:32.917Z,11.30
2018-03-24T16:23:00.413Z,11.30
2018-03-24T16:25:28.687Z,11.20
2018-03-24T16:27:56.167Z,11.10
2018-03-24T16:30:24.448Z,11.00
2018-03-24T16:32:52.697Z,11.00
2018-03-24T16:35:20.199Z,10.90
2018-03-24T16:37:48.451Z,10.90
2018-03-24T16:40:15.961Z,10.90
2018-03-24T16:42:44.220Z,10.80
2018-03-24T16:45:11.730Z,10.80
2018-03-24T16:47:39.988Z,10.80
2018-03-24T16:50:07.521Z,10.70
2018-03-24T16:52:35.003Z,10.80
2018-03-24T16:55:02.516Z,10.80
2018-03-24T16:57:30.004Z,10.70
2018-03-24T17:00:04.247Z,10.70
2018-03-24T17:02:32.488Z,10.60
2018-03-24T17:05:00.003Z,10.50
2018-03-24T17:07:27.496Z,10.60
2018-03-24T17:09:54.979Z,10.60
2018-03-24T17:12:22.499Z,10.60
2018-03-24T17:14:50.756Z,10.60
2018-03-24T17:17:18.264Z,10.50
2018-03-24T17:19:45.756Z,10.50
2018-03-24T17:22:13.260Z,10.50
2018-03-24T17:24:40.751Z,10.40
2018-03-24T17:27:08.259Z,10.30
2018-03-24T17:29:35.756Z,10.30
2018-03-24T17:32:03.282Z,10.30
2018-03-24T17:34:30.775Z,10.30
2018-03-24T17:36:58.357Z,10.30
2018-03-24T17:39:25.852Z,10.30
2018-03-24T17:41:53.415Z,10.30
2018-03-24T17:44:20.971Z,10.30
2018-03-24T17:46:49.223Z,10.20
2018-03-24T17:49:16.721Z,10.10
2018-03-24T17:51:44.249Z,10.10
2018-03-24T17:54:12.525Z,10.00
2018-03-24T17:56:40.032Z,10.00
2018-03-24T17:59:07.546Z,10.00
2018-03-24T18:01:35.050Z,9.90
2018-03-24T18:04:02.536Z,9.90
2018-03-24T18:06:30.848Z,9.80
2018-03-24T18:08:58.355Z,9.70
2018-03-24T18:11:25.847Z,9.70
2018-03-24T18:13:53.344Z,9.70
2018-03-24T18:16:20.834Z,9.70
2018-03-24T18:18:48.344Z,9.70
2018-03-24T18:21:15.834Z,9.80
2018-03-24T18:23:44.110Z,9.80
2018-03-24T18:26:11.600Z,9.70
2018-03-24T18:28:39.872Z,9.80
2018-03-24T18:31:07.363Z,9.70
2018-03-24T18:33:35.634Z,9.80
2018-03-24T18:36:03.894Z,9.80
2018-03-24T18:38:31.424Z,9.80
2018-03-24T18:40:58.919Z,9.80
2018-03-24T18:43:26.430Z,9.80
2018-03-24T18:45:53.965Z,9.80
2018-03-24T18:48:21.485Z,9.80
2018-03-24T18:50:49.775Z,9.90
2018-03-24T18:53:17.261Z,9.80
2018-03-24T18:55:44.744Z,9.80
2018-03-24T18:58:12.261Z,9.80
2018-03-24T19:00:39.768Z,9.80
2018-03-24T19:03:07.284Z,9.80
2018-03-24T19:05:34.779Z,9.80
2018-03-24T19:08:02.288Z,9.90
2018-03-24T19:10:29.777Z,9.90
2018-03-24T19:12:58.061Z,9.80
2018-03-24T19:15:25.564Z,9.70
2018-03-24T19:17:53.051Z,9.80
2018-03-24T19:20:20.571Z,9.70
2018-03-24T19:22:48.060Z,9.70
2018-03-24T19:25:15.567Z,9.60
2018-03-24T19:27:43.062Z,9.60
2018-03-24T19:30:10.594Z,9.50
2018-03-24T19:32:38.079Z,9.40
2018-03-24T19:35:06.395Z,9.40
2018-03-24T19:37:33.918Z,9.30
2018-03-24T19:40:01.409Z,9.30
2018-03-24T19:42:29.656Z,9.20
2018-03-24T19:44:57.173Z,9.20
2018-03-24T19:47:25.427Z,9.10
2018-03-24T19:49:52.931Z,9.10
2018-03-24T19:52:21.182Z,9.10
2018-03-24T19:54:48.701Z,9.00
2018-03-24T19:57:16.951Z,9.00
2018-03-24T19:59:44.461Z,8.90
2018-03-24T20:02:11.951Z,9.00
2018-03-24T20:04:49.104Z,8.90
2018-03-24T20:07:16.593Z,8.90
2018-03-24T20:09:44.865Z,8.90
2018-03-24T20:12:12.359Z,8.80
2018-03-24T20:14:40.638Z,8.90
2018-03-24T20:17:08.884Z,8.80
2018-03-24T20:19:36.412Z,8.80
2018-03-24T20:22:03.894Z,8.80
2018-03-24T20:24:31.381Z,8.80
2018-03-24T20:26:58.892Z,8.80
2018-03-24T20:29:26.377Z,8.70
2018-03-24T20:31:54.644Z,8.60
2018-03-24T20:34:22.132Z,8.50
2018-03-24T20:36:50.404Z,8.50
2018-03-24T20:39:17.905Z,8.50
2018-03-24T20:41:45.407Z,8.50
2018-03-24T20:44:12.891Z,8.60
2018-03-24T20:46:40.390Z,8.60
2018-03-24T20:49:08.653Z,8.60
2018-03-24T20:51:36.164Z,8.50
2018-03-24T20:54:04.441Z,8.50
2018-03-24T20:56:32.719Z,8.60
2018-03-24T20:59:00.208Z,8.50
2018-03-24T21:01:28.493Z,8.50
2018-03-24T21:03:56.006Z,8.40
2018-03-24T21:06:23.509Z,8.50
2018-03-24T21:08:51.006Z,8.60
2018-03-24T21:11:19.264Z,8.40
2018-03-24T21:13:46.771Z,8.40
2018-03-24T21:16:15.023Z,8.30
2018-03-24T21:18:42.546Z,8.30
2018-03-24T21:21:10.032Z,8.30
2018-03-24T21:23:37.531Z,8.30
2018-03-24T21:26:05.025Z,8.20
2018-03-24T21:28:32.538Z,8.20
2018-03-24T21:31:00.029Z,8.20
2018-03-24T21:33:27.536Z,8.10
2018-03-24T21:35:55.030Z,8.00
2018-03-24T21:38:22.555Z,8.10
2018-03-24T21:40:50.045Z,8.10
2018-03-24T21:43:17.532Z,8.00
2018-03-24T21:45:45.801Z,8.00
2018-03-24T21:48:13.290Z,8.00
2018-03-24T21:50:42.591Z,7.90
2018-03-24T21:53:10.872Z,7.80
2018-03-24T21:55:38.382Z,7.80
2018-03-24T21:58:05.885Z,7.70
2018-03-24T22:00:33.409Z,7.60
2018-03-24T22:03:01.676Z,7.60
2018-03-24T22:05:29.247Z,7.50
2018-03-24T22:07:56.700Z,7.60
2018-03-24T22:10:24.211Z,7.60
2018-03-24T22:12:51.720Z,7.60
2018-03-24T22:15:19.219Z,7.60
2018-03-24T22:17:46.720Z,7.60
2018-03-24T22:20:14.248Z,7.40
2018-03-24T22:22:41.744Z,7.20
2018-03-24T22:25:09.252Z,7.20
2018-03-24T22:27:36.735Z,7.30
2018-03-24T22:30:04.222Z,7.30
2018-03-24T22:32:31.723Z,7.40
2018-03-24T22:34:59.218Z,7.30
2018-03-24T22:37:26.731Z,7.30
2018-03-24T22:39:54.231Z,7.20
2018-03-24T22:42:22.517Z,7.10
2018-03-24T22:44:50.007Z,7.00
2018-03-24T22:47:18.279Z,6.80
2018-03-24T22:49:45.768Z,6.80
2018-03-24T22:52:13.275Z,6.70
2018-03-24T22:54:40.775Z,6.60
2018-03-24T22:57:08.301Z,6.40
2018-03-24T22:59:35.794Z,6.30
2018-03-24T23:02:03.315Z,6.20
2018-03-24T23:04:31.568Z,6.30
2018-03-24T23:06:59.089Z,6.30
2018-03-24T23:09:26.583Z,6.40
2018-03-24T23:11:54.126Z,6.50
2018-03-24T23:14:21.643Z,6.60
2018-03-24T23:16:49.136Z,6.70
2018-03-24T23:19:16.648Z,6.90
2018-03-24T23:21:44.135Z,6.80
2018-03-24T23:24:12.417Z,6.70
2018-03-24T23:26:39.915Z,6.60
2018-03-24T23:29:07.422Z,6.60
2018-03-24T23:31:35.679Z,6.50
2018-03-24T23:34:03.187Z,6.50
2018-03-24T23:36:31.443Z,6.40
2018-03-24T23:38:58.967Z,6.30
2018-03-24T23:41:27.215Z,6.40
2018-03-24T23:43:54.858Z,6.30
2018-03-24T23:46:28.098Z,6.40
2018-03-24T23:48:55.617Z,6.30
2018-03-24T23:51:23.119Z,6.20
2018-03-24T23:53:50.633Z,6.20
2018-03-24T23:56:18.127Z,6.10
2018-03-24T23:58:45.612Z,6.20
